sensor_id;sensor_type;location;lat;lon;timestamp;pressure;altitude;pressure_sealevel;temperature;humidity
74915;BME280;63475;45.140;-75.616;2023-06-05T00:00:22;100823.22;;;18.86;41.65
74915;BME280;63475;45.140;-75.616;2023-06-05T00:01:25;100827.03;;;18.76;41.98
74915;BME280;63475;45.140;-75.616;2023-06-05T00:02:27;100822.22;;;18.70;42.02
74915;BME280;63475;45.140;-75.616;2023-06-05T00:03:30;100831.66;;;18.65;42.05
74915;BME280;63475;45.140;-75.616;2023-06-05T00:04:33;100830.81;;;18.65;42.12
74915;BME280;63475;45.140;-75.616;2023-06-05T00:05:38;100836.16;;;18.57;42.37
74915;BME280;63475;45.140;-75.616;2023-06-05T00:06:41;100833.59;;;18.55;42.37
74915;BME280;63475;45.140;-75.616;2023-06-05T00:07:44;100824.66;;;18.55;42.66
74915;BME280;63475;45.140;-75.616;2023-06-05T00:08:47;100831.34;;;18.51;42.99
74915;BME280;63475;45.140;-75.616;2023-06-05T00:09:50;100829.81;;;18.48;43.00
74915;BME280;63475;45.140;-75.616;2023-06-05T00:10:52;100833.66;;;18.46;43.40
74915;BME280;63475;45.140;-75.616;2023-06-05T00:11:55;100830.28;;;18.44;43.23
74915;BME280;63475;45.140;-75.616;2023-06-05T00:12:58;100829.22;;;18.37;43.05
74915;BME280;63475;45.140;-75.616;2023-06-05T00:14:00;100823.41;;;18.32;43.20
74915;BME280;63475;45.140;-75.616;2023-06-05T00:15:04;100833.50;;;18.29;43.21
74915;BME280;63475;45.140;-75.616;2023-06-05T00:16:07;100832.81;;;18.27;43.69
74915;BME280;63475;45.140;-75.616;2023-06-05T00:17:10;100825.16;;;18.23;44.30
74915;BME280;63475;45.140;-75.616;2023-06-05T00:18:12;100823.63;;;18.20;44.37
74915;BME280;63475;45.140;-75.616;2023-06-05T00:19:16;100826.75;;;18.16;44.27
74915;BME280;63475;45.140;-75.616;2023-06-05T00:20:19;100818.44;;;18.09;44.51
74915;BME280;63475;45.140;-75.616;2023-06-05T00:21:22;100823.16;;;18.07;44.65
74915;BME280;63475;45.140;-75.616;2023-06-05T00:22:29;100827.84;;;18.05;44.75
74915;BME280;63475;45.140;-75.616;2023-06-05T00:23:33;100822.16;;;17.98;45.16
74915;BME280;63475;45.140;-75.616;2023-06-05T00:24:36;100820.47;;;17.97;44.91
74915;BME280;63475;45.140;-75.616;2023-06-05T00:25:39;100815.22;;;17.96;44.92
74915;BME280;63475;45.140;-75.616;2023-06-05T00:26:42;100824.94;;;17.89;46.39
74915;BME280;63475;45.140;-75.616;2023-06-05T00:27:44;100818.72;;;17.79;46.48
74915;BME280;63475;45.140;-75.616;2023-06-05T00:28:47;100818.88;;;17.77;45.29
74915;BME280;63475;45.140;-75.616;2023-06-05T00:29:50;100818.63;;;17.71;45.68
74915;BME280;63475;45.140;-75.616;2023-06-05T00:30:52;100820.78;;;17.67;45.52
74915;BME280;63475;45.140;-75.616;2023-06-05T00:31:55;100820.53;;;17.60;46.53
74915;BME280;63475;45.140;-75.616;2023-06-05T00:32:58;100822.66;;;17.57;45.60
74915;BME280;63475;45.140;-75.616;2023-06-05T00:34:01;100817.72;;;17.52;46.23
74915;BME280;63475;45.140;-75.616;2023-06-05T00:35:04;100822.03;;;17.45;46.63
74915;BME280;63475;45.140;-75.616;2023-06-05T00:36:07;100828.72;;;17.41;47.12
74915;BME280;63475;45.140;-75.616;2023-06-05T00:37:10;100827.28;;;17.37;47.32
74915;BME280;63475;45.140;-75.616;2023-06-05T00:38:13;100822.19;;;17.34;47.46
74915;BME280;63475;45.140;-75.616;2023-06-05T00:39:16;100823.91;;;17.25;47.70
74915;BME280;63475;45.140;-75.616;2023-06-05T00:40:21;100825.78;;;17.25;47.29
74915;BME280;63475;45.140;-75.616;2023-06-05T00:41:24;100821.69;;;17.21;47.78
74915;BME280;63475;45.140;-75.616;2023-06-05T00:42:26;100829.91;;;17.19;47.73
74915;BME280;63475;45.140;-75.616;2023-06-05T00:43:29;100822.53;;;17.12;48.44
74915;BME280;63475;45.140;-75.616;2023-06-05T00:44:31;100826.22;;;17.11;47.93
74915;BME280;63475;45.140;-75.616;2023-06-05T00:45:34;100831.88;;;17.08;48.14
74915;BME280;63475;45.140;-75.616;2023-06-05T00:46:38;100831.16;;;17.06;47.78
74915;BME280;63475;45.140;-75.616;2023-06-05T00:47:41;100829.94;;;17.00;48.13
74915;BME280;63475;45.140;-75.616;2023-06-05T00:48:44;100832.06;;;16.97;47.95
74915;BME280;63475;45.140;-75.616;2023-06-05T00:49:49;100829.66;;;16.93;48.46
74915;BME280;63475;45.140;-75.616;2023-06-05T00:50:52;100824.81;;;16.87;49.43
74915;BME280;63475;45.140;-75.616;2023-06-05T00:51:56;100827.22;;;16.81;49.38
74915;BME280;63475;45.140;-75.616;2023-06-05T00:53:01;100830.09;;;16.79;48.94
74915;BME280;63475;45.140;-75.616;2023-06-05T00:54:04;100826.28;;;16.72;49.82
74915;BME280;63475;45.140;-75.616;2023-06-05T00:55:09;100822.16;;;16.68;49.37
74915;BME280;63475;45.140;-75.616;2023-06-05T00:56:12;100826.13;;;16.64;49.85
74915;BME280;63475;45.140;-75.616;2023-06-05T00:57:15;100822.72;;;16.62;49.95
74915;BME280;63475;45.140;-75.616;2023-06-05T00:58:19;100820.75;;;16.54;49.45
74915;BME280;63475;45.140;-75.616;2023-06-05T00:59:22;100824.31;;;16.55;50.44
74915;BME280;63475;45.140;-75.616;2023-06-05T01:00:25;100819.19;;;16.52;50.72
74915;BME280;63475;45.140;-75.616;2023-06-05T01:01:28;100820.31;;;16.49;50.53
74915;BME280;63475;45.140;-75.616;2023-06-05T01:02:31;100816.06;;;16.47;50.40
74915;BME280;63475;45.140;-75.616;2023-06-05T01:03:36;100821.03;;;16.42;50.29
74915;BME280;63475;45.140;-75.616;2023-06-05T01:04:41;100820.31;;;16.40;50.16
74915;BME280;63475;45.140;-75.616;2023-06-05T01:05:45;100820.59;;;16.37;50.77
74915;BME280;63475;45.140;-75.616;2023-06-05T01:06:51;100821.88;;;16.33;50.42
74915;BME280;63475;45.140;-75.616;2023-06-05T01:07:55;100821.84;;;16.23;51.07
74915;BME280;63475;45.140;-75.616;2023-06-05T01:08:58;100824.50;;;16.13;50.82
74915;BME280;63475;45.140;-75.616;2023-06-05T01:10:02;100818.84;;;16.07;51.51
74915;BME280;63475;45.140;-75.616;2023-06-05T01:11:44;100824.19;;;15.97;51.41
74915;BME280;63475;45.140;-75.616;2023-06-05T01:13:06;100816.66;;;15.91;51.00
74915;BME280;63475;45.140;-75.616;2023-06-05T01:14:22;100828.72;;;15.87;51.77
74915;BME280;63475;45.140;-75.616;2023-06-05T01:15:28;100826.28;;;15.84;52.20
74915;BME280;63475;45.140;-75.616;2023-06-05T01:16:31;100827.69;;;15.78;52.48
74915;BME280;63475;45.140;-75.616;2023-06-05T01:17:35;100827.22;;;15.73;52.48
74915;BME280;63475;45.140;-75.616;2023-06-05T01:18:39;100830.19;;;15.70;51.98
74915;BME280;63475;45.140;-75.616;2023-06-05T01:19:42;100830.19;;;15.61;53.15
74915;BME280;63475;45.140;-75.616;2023-06-05T01:20:45;100834.84;;;15.58;53.47
74915;BME280;63475;45.140;-75.616;2023-06-05T01:21:48;100829.28;;;15.50;53.55
74915;BME280;63475;45.140;-75.616;2023-06-05T01:22:50;100834.34;;;15.44;54.29
74915;BME280;63475;45.140;-75.616;2023-06-05T01:23:57;100833.91;;;15.39;54.22
74915;BME280;63475;45.140;-75.616;2023-06-05T01:25:00;100841.13;;;15.38;54.22
74915;BME280;63475;45.140;-75.616;2023-06-05T01:26:06;100839.94;;;15.31;54.03
74915;BME280;63475;45.140;-75.616;2023-06-05T01:27:14;100835.81;;;15.27;54.71
74915;BME280;63475;45.140;-75.616;2023-06-05T01:28:23;100832.38;;;15.15;54.50
74915;BME280;63475;45.140;-75.616;2023-06-05T01:31:06;100828.59;;;15.07;55.19
74915;BME280;63475;45.140;-75.616;2023-06-05T01:32:15;100829.78;;;14.93;55.57
74915;BME280;63475;45.140;-75.616;2023-06-05T01:33:29;100821.66;;;14.83;55.66
74915;BME280;63475;45.140;-75.616;2023-06-05T01:34:34;100818.50;;;14.78;56.17
74915;BME280;63475;45.140;-75.616;2023-06-05T01:35:40;100824.84;;;14.77;57.02
74915;BME280;63475;45.140;-75.616;2023-06-05T01:36:43;100823.19;;;14.76;57.35
74915;BME280;63475;45.140;-75.616;2023-06-05T01:37:49;100816.94;;;14.76;57.00
74915;BME280;63475;45.140;-75.616;2023-06-05T01:38:54;100823.44;;;14.73;56.06
74915;BME280;63475;45.140;-75.616;2023-06-05T01:39:58;100828.94;;;14.72;55.73
74915;BME280;63475;45.140;-75.616;2023-06-05T01:41:00;100822.97;;;14.68;55.91
74915;BME280;63475;45.140;-75.616;2023-06-05T01:42:05;100832.00;;;14.67;56.63
74915;BME280;63475;45.140;-75.616;2023-06-05T01:43:09;100822.75;;;14.60;56.72
74915;BME280;63475;45.140;-75.616;2023-06-05T01:44:12;100820.31;;;14.57;56.58
74915;BME280;63475;45.140;-75.616;2023-06-05T01:45:18;100826.66;;;14.56;56.83
74915;BME280;63475;45.140;-75.616;2023-06-05T01:46:22;100827.94;;;14.52;56.91
74915;BME280;63475;45.140;-75.616;2023-06-05T01:47:25;100831.59;;;14.51;56.55
74915;BME280;63475;45.140;-75.616;2023-06-05T01:48:28;100836.25;;;14.49;56.66
74915;BME280;63475;45.140;-75.616;2023-06-05T01:49:32;100834.53;;;14.48;57.33
74915;BME280;63475;45.140;-75.616;2023-06-05T01:50:34;100830.28;;;14.45;57.69
74915;BME280;63475;45.140;-75.616;2023-06-05T01:51:38;100834.06;;;14.43;57.69
74915;BME280;63475;45.140;-75.616;2023-06-05T01:52:41;100835.03;;;14.42;57.43
74915;BME280;63475;45.140;-75.616;2023-06-05T01:53:47;100838.94;;;14.38;57.33
74915;BME280;63475;45.140;-75.616;2023-06-05T01:54:51;100841.03;;;14.34;57.31
74915;BME280;63475;45.140;-75.616;2023-06-05T01:55:55;100842.13;;;14.32;57.68
74915;BME280;63475;45.140;-75.616;2023-06-05T01:56:59;100845.09;;;14.29;57.25
74915;BME280;63475;45.140;-75.616;2023-06-05T01:58:02;100844.88;;;14.20;58.28
74915;BME280;63475;45.140;-75.616;2023-06-05T01:59:05;100845.00;;;14.19;57.93
74915;BME280;63475;45.140;-75.616;2023-06-05T02:00:10;100846.47;;;14.12;58.27
74915;BME280;63475;45.140;-75.616;2023-06-05T02:01:15;100845.25;;;14.05;58.73
74915;BME280;63475;45.140;-75.616;2023-06-05T02:02:18;100847.94;;;14.05;58.79
74915;BME280;63475;45.140;-75.616;2023-06-05T02:03:21;100857.06;;;14.02;58.64
74915;BME280;63475;45.140;-75.616;2023-06-05T02:04:25;100851.34;;;13.96;58.79
74915;BME280;63475;45.140;-75.616;2023-06-05T02:05:29;100855.38;;;13.90;59.18
74915;BME280;63475;45.140;-75.616;2023-06-05T02:06:34;100848.56;;;13.86;59.49
74915;BME280;63475;45.140;-75.616;2023-06-05T02:07:55;100843.47;;;13.83;59.38
74915;BME280;63475;45.140;-75.616;2023-06-05T02:09:00;100846.38;;;13.80;59.47
74915;BME280;63475;45.140;-75.616;2023-06-05T02:10:08;100842.13;;;13.77;59.46
74915;BME280;63475;45.140;-75.616;2023-06-05T02:11:11;100843.34;;;13.73;60.22
74915;BME280;63475;45.140;-75.616;2023-06-05T02:12:14;100848.81;;;13.72;60.39
74915;BME280;63475;45.140;-75.616;2023-06-05T02:13:17;100834.91;;;13.67;60.05
74915;BME280;63475;45.140;-75.616;2023-06-05T02:14:21;100843.34;;;13.62;59.77
74915;BME280;63475;45.140;-75.616;2023-06-05T02:15:25;100838.97;;;13.61;60.09
74915;BME280;63475;45.140;-75.616;2023-06-05T02:16:27;100835.69;;;13.58;59.57
74915;BME280;63475;45.140;-75.616;2023-06-05T02:17:31;100842.00;;;13.57;59.74
74915;BME280;63475;45.140;-75.616;2023-06-05T02:18:33;100842.00;;;13.57;59.74
74915;BME280;63475;45.140;-75.616;2023-06-05T02:19:40;100836.03;;;13.53;60.24
74915;BME280;63475;45.140;-75.616;2023-06-05T02:20:42;100835.31;;;13.51;59.45
74915;BME280;63475;45.140;-75.616;2023-06-05T02:21:45;100839.56;;;13.53;59.50
74915;BME280;63475;45.140;-75.616;2023-06-05T02:22:47;100838.59;;;13.54;59.83
74915;BME280;63475;45.140;-75.616;2023-06-05T02:23:54;100846.41;;;13.58;59.70
74915;BME280;63475;45.140;-75.616;2023-06-05T02:24:57;100843.47;;;13.61;58.83
74915;BME280;63475;45.140;-75.616;2023-06-05T02:25:59;100844.44;;;13.60;58.83
74915;BME280;63475;45.140;-75.616;2023-06-05T02:27:02;100837.38;;;13.59;59.66
74915;BME280;63475;45.140;-75.616;2023-06-05T02:28:05;100840.31;;;13.55;59.66
74915;BME280;63475;45.140;-75.616;2023-06-05T02:29:07;100841.50;;;13.51;60.04
74915;BME280;63475;45.140;-75.616;2023-06-05T02:30:10;100840.16;;;13.46;60.18
74915;BME280;63475;45.140;-75.616;2023-06-05T02:31:13;100842.97;;;13.44;59.83
74915;BME280;63475;45.140;-75.616;2023-06-05T02:32:18;100833.59;;;13.39;60.09
74915;BME280;63475;45.140;-75.616;2023-06-05T02:33:21;100838.72;;;13.31;60.10
74915;BME280;63475;45.140;-75.616;2023-06-05T02:34:25;100837.84;;;13.30;60.38
74915;BME280;63475;45.140;-75.616;2023-06-05T02:35:27;100835.75;;;13.23;60.39
74915;BME280;63475;45.140;-75.616;2023-06-05T02:36:31;100832.97;;;13.13;60.17
74915;BME280;63475;45.140;-75.616;2023-06-05T02:37:35;100827.72;;;13.11;60.80
74915;BME280;63475;45.140;-75.616;2023-06-05T02:38:45;100837.59;;;13.11;61.17
74915;BME280;63475;45.140;-75.616;2023-06-05T02:39:48;100826.16;;;13.09;61.58
74915;BME280;63475;45.140;-75.616;2023-06-05T02:40:51;100823.81;;;13.04;61.46
74915;BME280;63475;45.140;-75.616;2023-06-05T02:41:53;100829.75;;;12.97;63.03
74915;BME280;63475;45.140;-75.616;2023-06-05T02:42:58;100821.44;;;12.88;62.92
74915;BME280;63475;45.140;-75.616;2023-06-05T02:44:00;100818.88;;;12.87;62.53
74915;BME280;63475;45.140;-75.616;2023-06-05T02:45:04;100819.84;;;12.86;62.68
74915;BME280;63475;45.140;-75.616;2023-06-05T02:46:06;100822.16;;;12.79;62.56
74915;BME280;63475;45.140;-75.616;2023-06-05T02:47:09;100829.22;;;12.80;62.32
74915;BME280;63475;45.140;-75.616;2023-06-05T02:48:12;100827.84;;;12.75;62.38
74915;BME280;63475;45.140;-75.616;2023-06-05T02:49:14;100829.94;;;12.71;62.47
74915;BME280;63475;45.140;-75.616;2023-06-05T02:50:17;100814.09;;;12.68;62.71
74915;BME280;63475;45.140;-75.616;2023-06-05T02:51:20;100815.53;;;12.61;63.22
74915;BME280;63475;45.140;-75.616;2023-06-05T02:52:22;100815.63;;;12.60;63.46
74915;BME280;63475;45.140;-75.616;2023-06-05T02:53:26;100816.50;;;12.60;63.93
74915;BME280;63475;45.140;-75.616;2023-06-05T02:54:29;100811.38;;;12.57;63.72
74915;BME280;63475;45.140;-75.616;2023-06-05T02:55:32;100811.81;;;12.51;64.19
74915;BME280;63475;45.140;-75.616;2023-06-05T02:56:34;100804.28;;;12.45;64.17
74915;BME280;63475;45.140;-75.616;2023-06-05T02:57:38;100810.59;;;12.44;64.17
74915;BME280;63475;45.140;-75.616;2023-06-05T02:58:43;100805.25;;;12.44;63.74
74915;BME280;63475;45.140;-75.616;2023-06-05T02:59:47;100807.41;;;12.39;64.69
74915;BME280;63475;45.140;-75.616;2023-06-05T03:00:50;100798.75;;;12.35;64.30
74915;BME280;63475;45.140;-75.616;2023-06-05T03:01:53;100804.22;;;12.34;64.16
74915;BME280;63475;45.140;-75.616;2023-06-05T03:02:56;100796.94;;;12.36;64.34
74915;BME280;63475;45.140;-75.616;2023-06-05T03:04:02;100794.28;;;12.36;64.40
74915;BME280;63475;45.140;-75.616;2023-06-05T03:05:05;100799.72;;;12.34;64.15
74915;BME280;63475;45.140;-75.616;2023-06-05T03:06:09;100792.69;;;12.33;64.39
74915;BME280;63475;45.140;-75.616;2023-06-05T03:07:14;100799.72;;;12.34;64.66
74915;BME280;63475;45.140;-75.616;2023-06-05T03:08:17;100790.13;;;12.32;64.81
74915;BME280;63475;45.140;-75.616;2023-06-05T03:09:20;100798.13;;;12.32;64.53
74915;BME280;63475;45.140;-75.616;2023-06-05T03:10:22;100803.50;;;12.32;64.30
74915;BME280;63475;45.140;-75.616;2023-06-05T03:11:26;100800.81;;;12.32;64.37
74915;BME280;63475;45.140;-75.616;2023-06-05T03:12:28;100800.59;;;12.35;64.40
74915;BME280;63475;45.140;-75.616;2023-06-05T03:13:31;100801.72;;;12.43;65.24
74915;BME280;63475;45.140;-75.616;2023-06-05T03:14:37;100802.13;;;12.50;65.71
74915;BME280;63475;45.140;-75.616;2023-06-05T03:15:40;100799.31;;;12.51;65.47
74915;BME280;63475;45.140;-75.616;2023-06-05T03:16:44;100797.47;;;12.52;65.67
74915;BME280;63475;45.140;-75.616;2023-06-05T03:17:47;100791.28;;;12.51;64.85
74915;BME280;63475;45.140;-75.616;2023-06-05T03:18:50;100793.47;;;12.46;64.11
74915;BME280;63475;45.140;-75.616;2023-06-05T03:19:53;100789.66;;;12.38;63.16
74915;BME280;63475;45.140;-75.616;2023-06-05T03:20:56;100793.16;;;12.27;63.76
74915;BME280;63475;45.140;-75.616;2023-06-05T03:21:58;100794.25;;;12.25;63.79
74915;BME280;63475;45.140;-75.616;2023-06-05T03:23:01;100791.03;;;12.19;63.18
74915;BME280;63475;45.140;-75.616;2023-06-05T03:24:06;100791.03;;;12.19;63.74
74915;BME280;63475;45.140;-75.616;2023-06-05T03:25:09;100784.09;;;12.17;63.83
74915;BME280;63475;45.140;-75.616;2023-06-05T03:26:11;100785.69;;;12.19;63.87
74915;BME280;63475;45.140;-75.616;2023-06-05T03:27:14;100794.34;;;12.23;64.69
74915;BME280;63475;45.140;-75.616;2023-06-05T03:28:21;100791.19;;;12.29;65.87
74915;BME280;63475;45.140;-75.616;2023-06-05T03:29:24;100787.31;;;12.33;65.76
74915;BME280;63475;45.140;-75.616;2023-06-05T03:30:27;100789.16;;;12.33;65.35
74915;BME280;63475;45.140;-75.616;2023-06-05T03:31:29;100791.81;;;12.33;64.24
74915;BME280;63475;45.140;-75.616;2023-06-05T03:32:32;100783.88;;;12.20;63.53
74915;BME280;63475;45.140;-75.616;2023-06-05T03:33:35;100784.03;;;12.06;64.06
74915;BME280;63475;45.140;-75.616;2023-06-05T03:34:38;100784.75;;;11.84;64.94
74915;BME280;63475;45.140;-75.616;2023-06-05T03:35:45;100781.19;;;11.72;65.93
74915;BME280;63475;45.140;-75.616;2023-06-05T03:36:52;100779.25;;;11.62;66.25
74915;BME280;63475;45.140;-75.616;2023-06-05T03:37:55;100788.38;;;11.59;65.86
74915;BME280;63475;45.140;-75.616;2023-06-05T03:38:57;100783.13;;;11.58;66.19
74915;BME280;63475;45.140;-75.616;2023-06-05T03:40:00;100778.75;;;11.57;66.08
74915;BME280;63475;45.140;-75.616;2023-06-05T03:41:03;100775.34;;;11.55;66.11
74915;BME280;63475;45.140;-75.616;2023-06-05T03:42:05;100779.81;;;11.54;65.94
74915;BME280;63475;45.140;-75.616;2023-06-05T03:43:13;100774.69;;;11.51;66.07
74915;BME280;63475;45.140;-75.616;2023-06-05T03:44:15;100772.13;;;11.49;66.85
74915;BME280;63475;45.140;-75.616;2023-06-05T03:45:18;100772.03;;;11.51;67.02
74915;BME280;63475;45.140;-75.616;2023-06-05T03:46:21;100764.13;;;11.49;67.29
74915;BME280;63475;45.140;-75.616;2023-06-05T03:47:25;100770.44;;;11.48;67.25
74915;BME280;63475;45.140;-75.616;2023-06-05T03:48:30;100771.38;;;11.47;67.29
74915;BME280;63475;45.140;-75.616;2023-06-05T03:49:33;100775.03;;;11.46;66.92
74915;BME280;63475;45.140;-75.616;2023-06-05T03:50:37;100767.97;;;11.45;67.29
74915;BME280;63475;45.140;-75.616;2023-06-05T03:51:40;100770.97;;;11.41;67.52
74915;BME280;63475;45.140;-75.616;2023-06-05T03:52:43;100769.50;;;11.37;67.15
74915;BME280;63475;45.140;-75.616;2023-06-05T03:53:46;100767.53;;;11.39;67.28
74915;BME280;63475;45.140;-75.616;2023-06-05T03:54:57;100773.75;;;11.39;67.22
74915;BME280;63475;45.140;-75.616;2023-06-05T03:55:59;100777.84;;;11.32;67.10
74915;BME280;63475;45.140;-75.616;2023-06-05T03:57:02;100767.38;;;11.29;67.72
74915;BME280;63475;45.140;-75.616;2023-06-05T03:58:05;100769.09;;;11.30;67.15
74915;BME280;63475;45.140;-75.616;2023-06-05T03:59:09;100764.16;;;11.24;67.42
74915;BME280;63475;45.140;-75.616;2023-06-05T04:00:20;100761.59;;;11.23;67.75
74915;BME280;63475;45.140;-75.616;2023-06-05T04:01:23;100769.63;;;11.23;68.76
74915;BME280;63475;45.140;-75.616;2023-06-05T04:02:26;100766.09;;;11.35;68.14
74915;BME280;63475;45.140;-75.616;2023-06-05T04:03:28;100767.22;;;11.43;67.40
74915;BME280;63475;45.140;-75.616;2023-06-05T04:04:31;100770.13;;;11.40;67.26
74915;BME280;63475;45.140;-75.616;2023-06-05T04:05:37;100771.31;;;11.36;67.13
74915;BME280;63475;45.140;-75.616;2023-06-05T04:06:40;100763.31;;;11.24;67.90
74915;BME280;63475;45.140;-75.616;2023-06-05T04:07:43;100764.19;;;11.11;68.07
74915;BME280;63475;45.140;-75.616;2023-06-05T04:08:45;100758.63;;;11.02;68.53
74915;BME280;63475;45.140;-75.616;2023-06-05T04:09:48;100760.88;;;10.95;68.75
74915;BME280;63475;45.140;-75.616;2023-06-05T04:10:52;100755.13;;;10.89;68.91
74915;BME280;63475;45.140;-75.616;2023-06-05T04:11:55;100765.28;;;10.83;69.56
74915;BME280;63475;45.140;-75.616;2023-06-05T04:12:57;100760.25;;;10.79;69.79
74915;BME280;63475;45.140;-75.616;2023-06-05T04:14:00;100754.16;;;10.77;69.63
74915;BME280;63475;45.140;-75.616;2023-06-05T04:15:03;100754.06;;;10.78;69.57
74915;BME280;63475;45.140;-75.616;2023-06-05T04:16:06;100762.06;;;10.78;69.28
74915;BME280;63475;45.140;-75.616;2023-06-05T04:17:08;100755.75;;;10.79;69.38
74915;BME280;63475;45.140;-75.616;2023-06-05T04:18:13;100759.28;;;10.80;70.26
74915;BME280;63475;45.140;-75.616;2023-06-05T04:19:15;100759.28;;;10.80;70.00
74915;BME280;63475;45.140;-75.616;2023-06-05T04:20:18;100757.03;;;10.74;69.93
74915;BME280;63475;45.140;-75.616;2023-06-05T04:21:21;100755.13;;;10.76;69.80
74915;BME280;63475;45.140;-75.616;2023-06-05T04:22:23;100755.75;;;10.79;69.72
74915;BME280;63475;45.140;-75.616;2023-06-05T04:23:26;100751.19;;;10.81;69.87
74915;BME280;63475;45.140;-75.616;2023-06-05T04:24:29;100753.84;;;10.81;69.35
74915;BME280;63475;45.140;-75.616;2023-06-05T04:25:32;100750.97;;;10.85;69.66
74915;BME280;63475;45.140;-75.616;2023-06-05T04:26:39;100743.59;;;10.88;69.20
74915;BME280;63475;45.140;-75.616;2023-06-05T04:27:47;100742.84;;;10.86;69.60
74915;BME280;63475;45.140;-75.616;2023-06-05T04:28:52;100750.00;;;10.86;69.77
74915;BME280;63475;45.140;-75.616;2023-06-05T04:29:54;100744.66;;;10.86;69.72
74915;BME280;63475;45.140;-75.616;2023-06-05T04:30:57;100747.34;;;10.86;69.74
74915;BME280;63475;45.140;-75.616;2023-06-05T04:32:00;100753.63;;;10.85;69.72
74915;BME280;63475;45.140;-75.616;2023-06-05T04:33:03;100743.91;;;10.83;70.18
74915;BME280;63475;45.140;-75.616;2023-06-05T04:34:08;100743.91;;;10.83;70.22
74915;BME280;63475;45.140;-75.616;2023-06-05T04:35:11;100743.91;;;10.83;70.44
74915;BME280;63475;45.140;-75.616;2023-06-05T04:36:14;100736.88;;;10.82;70.44
74915;BME280;63475;45.140;-75.616;2023-06-05T04:37:19;100742.31;;;10.81;69.92
74915;BME280;63475;45.140;-75.616;2023-06-05T04:38:22;100743.28;;;10.80;70.60
74915;BME280;63475;45.140;-75.616;2023-06-05T04:39:25;100745.94;;;10.80;70.47
74915;BME280;63475;45.140;-75.616;2023-06-05T04:40:27;100748.63;;;10.80;70.29
74915;BME280;63475;45.140;-75.616;2023-06-05T04:41:31;100739.84;;;10.78;70.81
74915;BME280;63475;45.140;-75.616;2023-06-05T04:42:35;100737.28;;;10.76;70.47
74915;BME280;63475;45.140;-75.616;2023-06-05T04:43:38;100749.88;;;10.74;70.84
74915;BME280;63475;45.140;-75.616;2023-06-05T04:44:41;100741.03;;;10.74;71.26
74915;BME280;63475;45.140;-75.616;2023-06-05T04:45:43;100737.50;;;10.73;71.29
74915;BME280;63475;45.140;-75.616;2023-06-05T04:46:48;100746.47;;;10.72;71.11
74915;BME280;63475;45.140;-75.616;2023-06-05T04:47:50;100742.63;;;10.76;71.43
74915;BME280;63475;45.140;-75.616;2023-06-05T04:48:54;100744.03;;;10.82;72.60
74915;BME280;63475;45.140;-75.616;2023-06-05T04:50:01;100739.00;;;10.90;71.77
74915;BME280;63475;45.140;-75.616;2023-06-05T04:51:06;100733.78;;;10.89;70.78
74915;BME280;63475;45.140;-75.616;2023-06-05T04:52:10;100741.66;;;10.77;71.21
74915;BME280;63475;45.140;-75.616;2023-06-05T04:53:13;100744.13;;;10.68;71.59
74915;BME280;63475;45.140;-75.616;2023-06-05T04:54:16;100741.56;;;10.54;72.17
74915;BME280;63475;45.140;-75.616;2023-06-05T04:55:19;100742.50;;;10.40;73.15
74915;BME280;63475;45.140;-75.616;2023-06-05T04:56:23;100732.44;;;10.31;73.17
74915;BME280;63475;45.140;-75.616;2023-06-05T04:57:27;100737.88;;;10.29;72.91
74915;BME280;63475;45.140;-75.616;2023-06-05T04:58:30;100731.50;;;10.32;72.83
74915;BME280;63475;45.140;-75.616;2023-06-05T04:59:33;100731.50;;;10.32;72.79
74915;BME280;63475;45.140;-75.616;2023-06-05T05:00:35;100728.81;;;10.32;73.09
74915;BME280;63475;45.140;-75.616;2023-06-05T05:01:38;100733.00;;;10.36;73.30
74915;BME280;63475;45.140;-75.616;2023-06-05T05:02:43;100730.53;;;10.33;73.22
74915;BME280;63475;45.140;-75.616;2023-06-05T05:03:46;100730.53;;;10.33;73.28
74915;BME280;63475;45.140;-75.616;2023-06-05T05:04:49;100733.00;;;10.36;72.89
74915;BME280;63475;45.140;-75.616;2023-06-05T05:05:51;100727.47;;;10.39;72.74
74915;BME280;63475;45.140;-75.616;2023-06-05T05:06:54;100724.69;;;10.40;72.55
74915;BME280;63475;45.140;-75.616;2023-06-05T05:07:57;100731.09;;;10.38;72.75
74915;BME280;63475;45.140;-75.616;2023-06-05T05:09:04;100729.28;;;10.38;72.20
74915;BME280;63475;45.140;-75.616;2023-06-05T05:10:09;100732.78;;;10.39;72.53
74915;BME280;63475;45.140;-75.616;2023-06-05T05:11:12;100724.03;;;10.37;72.45
74915;BME280;63475;45.140;-75.616;2023-06-05T05:12:15;100729.38;;;10.37;72.74
74915;BME280;63475;45.140;-75.616;2023-06-05T05:13:18;100729.38;;;10.37;72.41
74915;BME280;63475;45.140;-75.616;2023-06-05T05:14:21;100728.53;;;10.36;72.51
74915;BME280;63475;45.140;-75.616;2023-06-05T05:15:24;100723.41;;;10.33;72.19
74915;BME280;63475;45.140;-75.616;2023-06-05T05:16:27;100721.59;;;10.34;72.68
74915;BME280;63475;45.140;-75.616;2023-06-05T05:17:32;100727.88;;;10.33;72.70
74915;BME280;63475;45.140;-75.616;2023-06-05T05:18:35;100723.59;;;10.30;72.94
74915;BME280;63475;45.140;-75.616;2023-06-05T05:19:39;100725.41;;;10.30;72.70
74915;BME280;63475;45.140;-75.616;2023-06-05T05:20:43;100721.03;;;10.29;73.18
74915;BME280;63475;45.140;-75.616;2023-06-05T05:21:45;100728.28;;;10.27;72.85
74915;BME280;63475;45.140;-75.616;2023-06-05T05:22:49;100728.28;;;10.27;73.19
74915;BME280;63475;45.140;-75.616;2023-06-05T05:23:52;100730.19;;;10.25;73.06
74915;BME280;63475;45.140;-75.616;2023-06-05T05:24:55;100726.66;;;10.24;73.08
74915;BME280;63475;45.140;-75.616;2023-06-05T05:25:58;100726.97;;;10.20;73.28
74915;BME280;63475;45.140;-75.616;2023-06-05T05:27:01;100737.19;;;10.13;73.74